Datum max min   Außentemperatur Tagesdurchschnitt Außenfeuchte Tagesdurchschnitt Taupunkt Tagesdurchschnitt Windchill Tagesdurchschnitt Windgeschwindigkeit Tagesdurchschnitt   Mindesttemperatur Höchsttemperatur Höchste Windgeschwindigkeit  Tägliche Niederschlagsmenge 
  °C % °C °C km/h   °C °C km/h mm/m²
 
mittelwert
01.01.1967     1012,5 1,2           0,4 6,0   1,7
02.01.1967     1013,4 -1,4           -1,6 0,4   0,2
03.01.1967     1011,9 -2,4           -3,0 -1,5   3,2
04.01.1967     1010,5 -2,0           -3,2 -0,6   6,1
05.01.1967     1006,9 -4,8           -5,7 -2,4   2,8
06.01.1967     1013,9 -7,4           -10,0 -5,2   2,0
07.01.1967     1013,7 -7,8           -9,2 -6,7   0,2
08.01.1967     1011,9 -10,5           -11,8 -7,0   0,3
09.01.1967     1013,1 -16,4           -19,5 -10,8   0,0
10.01.1967     1013,0 -12,2           -22,2 -9,6   0,0
11.01.1967     1004,1 -5,9           -9,6 -4,0   1,9
12.01.1967     1014,2 -1,2           -4,2 -0,4   2,0
13.01.1967     1020,1 0,4           -1,2 0,9   4,1
14.01.1967     1024,2 1,5           0,6 2,5   0,2
15.01.1967     1028,6 1,4           0,9 1,9   1,5
16.01.1967     1028,7 0,4           0,2 1,4   0,2
17.01.1967     1022,1 -1,7           -3,4 0,4   0,0
18.01.1967     1016,5 -2,0           -6,0 -1,0   0,1
19.01.1967     1017,7 -1,1           -1,7 -0,1   0,0
20.01.1967     1018,3 -4,1           -6,9 -0,5   0,0
21.01.1967     1015,4 0,6           -5,9 2,3   1,4
22.01.1967     1016,1 0,8           -0,3 2,4   3,1
23.01.1967     1013,3 -0,3           -1,2 0,5   0,1
24.01.1967     1008,9 0,8           -0,8 1,8   0,7
25.01.1967     1013,3 1,7           0,4 2,1   2,3
26.01.1967     1010,7 3,3           2,0 4,7   9,5
27.01.1967     1022,1 -0,6           -1,3 3,9   1,7
28.01.1967     1020,7 2,8           -1,3 4,3   0,0
29.01.1967     1017,1 5,1           3,6 6,2   0,2
30.01.1967     1020,2 3,4           -0,2 8,6   0,0
31.01.1967     1021,5 0,6           -0,1 2,5   0,0
01.02.1967     1021,1 3,4           -0,2 4,7   5,4
02.02.1967     1021,7 5,4           2,4 5,7   1,8
03.02.1967     1021,8 6,8           5,7 7,1   1,6
04.02.1967     1021,9 4,3           2,6 7,3   0,0
05.02.1967     1028,2 0,8           -0,5 3,6   0,1
06.02.1967     1026,6 0,2           -1,5 5,5   0,0
07.02.1967     1021,0 0,5           -2,8 3,3   0,2
08.02.1967     1015,0 -2,2           -3,4 0,1   2,8
09.02.1967     1019,7 -6,0           -8,7 -3,3   0,0
10.02.1967     1020,2 -3,7           -8,4 -0,7   2,4
11.02.1967     1022,3 -3,6           -6,2 -0,3   0,1
12.02.1967     1027,0 -7,2           -10,5 -4,5   0,0
13.02.1967     1026,7 -8,2           -11,0 -3,8   0,0
14.02.1967     1025,7 -6,2           -11,8 -1,3   0,0
15.02.1967     1017,5 -4,0           -8,6 -0,4   0,0
16.02.1967     1008,5 -3,0           -7,7 0,2   0,0
17.02.1967     1001,7 -2,4           -6,3 -0,5   1,3
18.02.1967     1003,5 -2,0           -3,5 2,4   0,5
19.02.1967     1005,5 3,1           -4,4 5,4   12,2
20.02.1967     1005,0 2,2           0,5 6,2   11,6
21.02.1967     1000,6 4,2           0,3 8,0   4,0
22.02.1967     1016,2 2,6           -0,5 4,9   0,2
23.02.1967     1005,5 4,0           0,1 12,4   6,8
24.02.1967     1016,9 0,4           -1,2 2,9   0,1
25.02.1967     1011,1 1,8           -4,1 7,0   0,0
26.02.1967     1009,4 5,4           -0,1 10,9   0,0
27.02.1967     1016,2 4,3           3,1 8,6   3,0
28.02.1967     1002,6 4,8           2,4 8,0   17,9
01.03.1967     1013,1 1,9           0,3 5,1   0,0
02.03.1967     1011,7 1,4           0,3 3,3   8,1
03.03.1967     1020,2 2,9           0,2 4,2   0,0
04.03.1967     1022,5 3,4           2,2 5,1   0,0
05.03.1967     1017,7 5,4           -1,7 11,0   0,1
06.03.1967     1024,2 5,4           4,2 9,0   0,0
07.03.1967     1021,0 5,5           0,0 12,1   0,0
08.03.1967     1011,7 5,4           2,9 10,6   0,1
09.03.1967     1005,8 6,1           0,5 11,0   0,0
10.03.1967     1009,4 6,1           4,4 9,1   0,2
11.03.1967     1010,2 4,1           2,2 8,7   2,9
12.03.1967     1015,0 2,0           0,7 5,5   6,3
13.03.1967     1010,7 0,5           -0,6 1,8   6,1
14.03.1967     1030,9 1,7           -1,8 4,3   0,0
15.03.1967     1025,7 3,7           1,8 6,2   1,0
16.03.1967     1022,2 0,8           -1,3 4,6   2,1
17.03.1967     1021,4 1,7           -1,7 3,8   4,9
18.03.1967     1004,7 1,0           0,3 3,3   6,5
19.03.1967     1011,4 0,8           -0,2 1,8   3,6
20.03.1967     1016,6 1,4           0,3 3,0   8,3
21.03.1967     1022,1 4,0           0,8 5,5   0,1
22.03.1967     1019,3 6,7           4,1 9,8   0,0
23.03.1967     1013,9 1,8           0,1 6,5   1,6
24.03.1967     1020,1 1,5           -0,7 4,6   0,0
25.03.1967     1013,1 4,2           0,3 10,3   0,0
26.03.1967     1007,1 2,1           -0,3 14,6   0,0
27.03.1967     1006,6 7,4           2,9 11,4   3,3
28.03.1967     1001,3 1,6           -0,8 9,1   0,1
29.03.1967     1006,1 1,9           -1,6 6,8   0,0
30.03.1967     1012,7 1,0           -1,7 6,0   0,0
31.03.1967     1015,7 1,3           -3,0 6,4   0,0
01.04.1967     1019,1 1,4           -1,8 6,3   0,2
02.04.1967     1019,1 0,9           -2,9 5,6   0,0
03.04.1967     1012,7 2,6           -0,3 5,0   1,2
04.04.1967     1015,7 2,8           1,4 4,4   6,4
05.04.1967     1009,9 2,5           1,3 4,6   6,7
06.04.1967     997,3 0,6           -0,3 2,9   1,5
07.04.1967     1000,5 1,2           -0,8 3,5   1,2
08.04.1967     1008,6 3,3           0,7 9,0   0,0
09.04.1967     1006,5 7,4           -0,4 13,1   0,0
10.04.1967     1007,5 8,6           4,3 11,5   0,0
11.04.1967     1014,6 7,9           3,5 15,0   0,0
12.04.1967     1018,6 8,7           1,3 16,0   0,1
13.04.1967     1019,5 6,0           1,2 11,3   0,2
14.04.1967     1017,7 4,5           4,0 5,6   0,2
15.04.1967     1017,7 5,9           4,3 10,2   0,0
16.04.1967     1019,9 8,0           0,8 14,3   0,0
17.04.1967     1014,2 10,0           -1,1 17,6   0,0
18.04.1967     1011,1 3,6           0,6 10,5   0,1
19.04.1967     1014,2 4,5           -3,1 8,8   0,0
20.04.1967     1001,7 9,6           3,3 14,6   0,3
21.04.1967     997,1 3,4           0,7 9,7   3,2
22.04.1967     1009,8 1,0           -1,4 5,5   0,2
23.04.1967     1011,3 1,0           -2,1 4,3   4,6
24.04.1967     1016,6 0,2           -1,1 4,2   2,3
25.04.1967     1017,3 -0,6           -2,2 1,6   2,5
26.04.1967     1019,5 2,6           -0,3 5,2   0,0
27.04.1967     1021,9 4,3           2,0 6,7   0,0
28.04.1967     1023,1 6,0           3,4 10,5   0,0
29.04.1967     1019,7 7,8           -1,4 14,9   0,0
30.04.1967     1014,2 10,8           1,5 17,0   0,0
01.05.1967     1004,5 11,4           7,2 16,8   1,8
02.05.1967     1004,7 4,8           3,9 9,8   3,9
03.05.1967     1006,7 2,7           1,9 6,0   8,4
04.05.1967     1013,5 4,7           -0,4 10,0   0,0
05.05.1967     1011,5 7,8           -0,9 13,4   0,0
06.05.1967     1009,7 10,0           0,6 17,0   0,1
07.05.1967     1018,7 10,6           6,4 16,4   0,0
08.05.1967     1022,5 13,0           2,3 18,5   0,0
09.05.1967     1024,6 12,6           4,1 17,6   0,0
10.05.1967     1021,5 15,8           7,4 21,5   0,0
11.05.1967     1019,0 16,5           9,3 22,2   0,0
12.05.1967     1016,6 16,8           9,9 23,7   0,3
13.05.1967     1014,3 17,4           9,6 24,5   0,0
14.05.1967     1010,2 15,7           10,9 22,0   6,5
15.05.1967     1005,5 13,9           10,9 18,3   6,8
16.05.1967     1005,5 14,0           10,2 19,1   0,1
17.05.1967     1002,2 11,8           8,4 15,7   0,4
18.05.1967     1010,2 9,6           7,3 14,9   0,0
19.05.1967     1019,9 9,1           2,6 12,9   0,0
20.05.1967     1020,1 9,7           4,4 12,3   0,0
21.05.1967     1020,7 9,8           3,2 15,6   0,0
22.05.1967     1014,7 12,7           3,1 18,9   0,0
23.05.1967     1007,7 9,8           5,7 18,5   11,3
24.05.1967     1009,4 9,0           6,2 13,4   0,7
25.05.1967     1003,0 8,9           6,5 13,6   28,6
26.05.1967     1011,9 8,2           5,0 11,5   0,4
27.05.1967     1019,3 12,8           3,2 19,0   0,0
28.05.1967     1017,0 16,6           7,3 22,9   0,0
29.05.1967     1018,3 12,7           10,0 18,8   10,5
30.05.1967     1014,2 8,6           8,3 10,2   17,8
31.05.1967     1011,7 9,0           7,1 10,0   1,2
01.06.1967     1017,4 12,0           9,4 16,6   0,2
02.06.1967     1021,5 11,5           9,5 16,5   0,1
03.06.1967     1026,2 12,5           5,0 18,8   0,0
04.06.1967     1025,3 15,4           5,9 21,6   0,0
05.06.1967     1021,3 12,4           10,0 17,6   1,3
06.06.1967     1018,1 15,8           6,9 21,3   0,0
07.06.1967     1008,9 16,0           7,8 22,5   0,4
08.06.1967     1011,8 8,4           7,0 15,0   3,9
09.06.1967     1019,5 8,2           5,5 12,0   0,0
10.06.1967     1018,9 7,2           4,0 11,5   6,4
11.06.1967     1017,7 6,2           3,3 10,7   4,3
12.06.1967     1020,1 5,7           4,6 6,1   4,2
13.06.1967     1019,0 7,8           3,5 12,5   6,1
14.06.1967     1013,1 7,5           4,2 9,9   13,7
15.06.1967     1016,3 6,3           3,8 7,9   4,1
16.06.1967     1022,5 10,2           5,6 14,5   0,0
17.06.1967     1021,1 14,0           8,3 19,0   0,0
18.06.1967     1017,8 14,2           8,4 19,8   0,0
19.06.1967     1017,8 12,5           8,4 19,8   0,0
20.06.1967     1015,0 14,0           9,8 18,6   1,9
21.06.1967     1017,0 12,4           11,2 15,8   0,8
22.06.1967     1022,9 15,6           6,3 21,0   0,0
23.06.1967     1020,2 20,0           9,3 26,5   0,0
24.06.1967     1017,5 21,3           13,8 27,5   0,0
25.06.1967     1016,6 25,5           13,2 30,1   1,2
26.06.1967     1018,7 19,8           14,9 25,7   0,6
27.06.1967     1015,8 15,4           13,5 19,1   0,2
28.06.1967     1021,5 13,7           11,0 18,0   0,0
29.06.1967     1023,1 16,2           6,9 21,6   0,0
30.06.1967     1023,1 16,8           9,2 22,0   0,0
01.07.1967     1020,2 19,2           9,8 25,5   0,0
02.07.1967     1016,2 20,8           13,9 28,3   0,0
03.07.1967     1014,5 18,0           13,9 22,1   8,6
04.07.1967     1020,3 13,6           11,9 17,7   0,0
05.07.1967     1021,9 13,3           10,0 17,7   0,0
06.07.1967     1019,8 14,3           10,9 19,6   0,0
07.07.1967     1013,8 17,5           8,4 22,4   0,0
08.07.1967     1012,6 15,8           13,5 21,5   8,8
09.07.1967     1020,3 12,6           9,3 16,6   0,0
10.07.1967     1026,9 12,3           9,0 17,4   0,0
11.07.1967     1023,1 16,2           5,6 22,3   0,0
12.07.1967     1019,3 18,8           9,7 25,7   0,0
13.07.1967     1016,6 21,3           12,1 28,1   0,0
14.07.1967     1017,5 22,8           13,2 29,3   0,1
15.07.1967     1021,5 16,2           14,8 23,3   12,8
16.07.1967     1021,8 15,6           14,1 19,5   5,6
17.07.1967     1020,2 14,2           10,1 19,4   0,0
18.07.1967     1019,9 18,2           8,1 25,3   0,0
19.07.1967     1020,1 22,5           12,0 28,7   0,4
20.07.1967     1019,7 17,6           15,4 27,7   17,7
21.07.1967     1019,0 16,5           8,0 23,1   0,0
22.07.1967     1014,9 17,8           11,3 24,6   6,2
23.07.1967     1018,7 18,3           13,0 25,2   0,9
24.07.1967     1024,2 15,4           10,7 20,0   0,0
25.07.1967     1020,9 18,0           8,8 23,5   0,0
26.07.1967     1018,7 18,8           11,3 24,8   0,0
27.07.1967     1016,7 19,6           11,8 25,6   0,0
28.07.1967     1015,0 20,4           13,4 26,7   0,0
29.07.1967     1017,0 17,9           12,7 23,1   4,1
30.07.1967     1019,3 18,9           10,3 25,0   0,0
31.07.1967     1019,3 21,6           11,0 28,3   0,1
01.08.1967     1017,7 22,0           16,7 27,8   0,0
02.08.1967     1014,5 20,1           15,0 29,7   0,0
03.08.1967     1016,2 18,2           14,1 23,9   0,2
04.08.1967     1016,2 15,7           13,6 19,4   9,3
05.08.1967     1019,7 10,2           8,2 15,1   7,6
06.08.1967     1022,7 11,0           3,4 16,3   0,0
07.08.1967     1017,4 12,9           6,2 17,8   0,0
08.08.1967     1013,0 16,0           10,3 22,4   0,0
09.08.1967     1012,9 19,0           9,8 25,6   0,3
10.08.1967     1013,1 16,2           14,3 20,7   7,6
11.08.1967     1014,5 13,5           11,7 16,3   0,1
12.08.1967     1009,7 14,3           11,7 19,7   4,0
13.08.1967     1009,5 10,8           8,7 14,0   2,4
14.08.1967     1011,8 12,9           8,9 17,5   0,6
15.08.1967     1013,0 16,1           11,7 19,4   0,0
16.08.1967     1014,3 20,0           14,9 25,5   19,4
17.08.1967     1018,6 14,5           12,0 19,2   0,0
18.08.1967     1021,8 13,0           6,2 19,2   0,0
19.08.1967     1019,0 14,9           6,1 19,4   0,1
20.08.1967     1021,5 10,8           9,1 14,9   1,1
21.08.1967     1024,1 11,8           3,2 17,0   0,0
22.08.1967     1023,5 12,8           10,2 17,9   0,0
23.08.1967     1018,9 15,4           5,6 22,9   0,0
24.08.1967     1014,7 13,8           9,1 20,6   6,9
25.08.1967     1015,8 14,8           12,4 20,8   1,7
26.08.1967     1016,9 13,8           7,1 20,7   6,6
27.08.1967     1021,3 13,5           11,0 17,4   0,0
28.08.1967     1021,7 13,0           7,9 17,8   0,0
29.08.1967     1018,2 14,2           6,1 20,7   0,0
30.08.1967     1017,7 14,4           8,3 21,4   0,1
31.08.1967     1016,7 13,8           9,4 19,9   0,0
01.09.1967     1015,0 14,4           8,0 18,6   0,0
02.09.1967     1011,5 17,5           12,1 21,4   0,0
03.09.1967     1008,3 18,6           12,3 24,0   3,6
04.09.1967     1007,3 11,8           9,7 18,1   10,3
05.09.1967     1013,7 11,8           7,1 17,6   0,0
06.09.1967     1017,5 10,9           8,6 15,0   6,5
07.09.1967     1020,7 11,0           8,0 14,6   2,4
08.09.1967     1019,8 9,2           8,5 11,7   0,3
09.09.1967     1021,1 9,3           7,8 10,3   9,7
10.09.1967     1020,7 9,8           9,1 12,8   0,3
11.09.1967     1016,5 8,7           7,9 10,8   2,6
12.09.1967     1014,6 8,4           7,1 9,7   0,1
13.09.1967     1014,6 11,0           8,2 13,8   0,7
14.09.1967     1011,8 12,9           11,3 15,6   0,1
15.09.1967     1012,7 12,1           9,8 17,1   0,0
16.09.1967     1013,1 12,0           7,3 13,9   4,5
17.09.1967     1014,2 11,8           10,0 15,1   0,0
18.09.1967     1015,4 10,9           8,7 17,1   0,0
19.09.1967     1011,3 12,3           6,8 16,0   3,3
20.09.1967     1009,5 9,3           7,4 13,4   0,8
21.09.1967     1001,7 11,2           6,1 14,6   12,1
22.09.1967     1007,7 9,8           8,3 13,7   0,0
23.09.1967     1016,5 8,9           6,4 15,3   0,0
24.09.1967     1019,5 12,2           2,9 19,8   0,0
25.09.1967     1020,5 15,5           9,5 22,0   0,0
26.09.1967     1017,5 16,0           10,7 23,4   0,0
27.09.1967     1021,1 14,9           10,9 20,0   0,0
28.09.1967     1022,9 13,8           10,5 20,3   0,2
29.09.1967     1021,5 13,3           6,9 21,0   0,0
30.09.1967     1017,0 14,4           10,7 20,3   7,0
01.10.1967     1020,1 9,6           6,4 14,8   0,0
02.10.1967     1011,5 11,7           4,4 17,4   0,0
03.10.1967     1009,4 11,0           7,4 14,8   0,2
04.10.1967     998,6 10,4           7,5 17,0   8,7
05.10.1967     1006,5 8,0           6,8 9,8   1,6
06.10.1967     1016,6 7,9           4,6 10,9   0,0
07.10.1967     1019,8 12,3           8,0 14,6   0,0
08.10.1967     1024,2 13,3           12,1 15,8   2,1
09.10.1967     1026,6 13,7           12,1 14,9   0,2
10.10.1967     1021,7 12,3           10,0 16,7   0,0
11.10.1967     1020,6 13,9           8,5 18,8   0,0
12.10.1967     1018,9 12,0           6,0 20,7   0,0
13.10.1967     1017,0 10,7           7,2 15,6   0,9
14.10.1967     1016,6 12,5           8,8 15,9   0,4
15.10.1967     1012,2 11,7           10,2 15,5   13,6
16.10.1967     1011,8 14,2           9,3 15,9   4,0
17.10.1967     1006,9 12,4           9,1 18,1   22,0
18.10.1967     1019,1 4,1           1,6 9,1   0,6
19.10.1967     1022,1 3,3           -2,2 9,4   0,0
20.10.1967     1018,9 6,6           1,0 14,6   0,0
21.10.1967     1015,9 8,6           2,1 15,6   0,0
22.10.1967     1017,5 11,3           3,3 13,4   0,4
23.10.1967     1016,2 11,8           9,5 15,6   0,2
24.10.1967     1011,9 12,1           9,0 16,4   3,9
25.10.1967     1014,5 8,4           4,4 11,8   0,0
26.10.1967     1015,0 11,7           6,4 15,0   0,3
27.10.1967     1011,9 11,0           8,8 14,0   0,1
28.10.1967     1005,8 9,5           7,4 12,6   0,0
29.10.1967     1007,5 5,2           3,9 10,0   0,2
30.10.1967     1013,3 3,1           1,0 5,9   1,1
31.10.1967     1004,7 4,0           -1,7 8,4   0,3
01.11.1967     1003,4 3,6           0,8 5,6   0,6
02.11.1967     1000,3 6,4           2,5 9,7   3,1
03.11.1967     1003,9 5,4           4,0 8,7   1,8
04.11.1967     1004,9 3,4           -1,5 7,2   0,0
05.11.1967     995,0 4,7           2,8 7,6   0,5
06.11.1967     1004,6 2,5           1,0 7,0   0,0
07.11.1967     1014,5 1,2           -2,1 6,1   0,0
08.11.1967     1018,1 0,8           -3,0 3,4   0,0
09.11.1967     1018,1 2,5           0,2 5,1   1,9
10.11.1967     1020,1 1,7           0,5 4,4   0,3
11.11.1967     1020,1 1,6           0,1 2,0   0,2
12.11.1967     1017,4 5,6           2,0 7,9   0,1
13.11.1967     1021,9 1,3           -1,0 7,2   0,1
14.11.1967     1014,6 4,6           -2,5 10,5   0,0
15.11.1967     1007,0 8,9           2,0 11,9   4,0
16.11.1967     1016,6 3,8           3,3 10,3   0,2
17.11.1967     1031,0 0,1           -2,1 5,0   0,1
18.11.1967     1025,5 -0,6           -6,1 6,5   0,2
19.11.1967     1024,3 0,0           -3,0 1,8   0,2
20.11.1967     1024,7 -0,6           -4,0 3,9   0,0
21.11.1967     1028,3 0,3           -4,1 7,9   0,0
22.11.1967     1035,0 1,7           -3,3 3,0   0,1
23.11.1967     1031,8 0,9           -0,4 2,3   0,1
24.11.1967     1024,5 -0,1           -1,1 1,5   0,1
25.11.1967     1015,0 -1,9           -3,8 0,6   0,0
26.11.1967     1011,9 -0,2           -2,4 0,3   0,2
27.11.1967     1008,6 -0,4           -0,7 0,3   0,7
28.11.1967     1010,3 -1,5           -3,1 -0,3   3,0
29.11.1967     1009,5 2,3           -0,8 3,8   2,5
30.11.1967     1024,1 2,3           1,4 3,6   0,0
01.12.1967     1029,9 1,2           -1,6 4,6   0,1
02.12.1967     1030,7 -1,0           -2,2 0,9   0,2
03.12.1967     1024,5 -0,8           -4,6 6,0   1,1
04.12.1967     1020,7 1,8           -1,9 2,8   1,6
05.12.1967     1009,1 1,1           -0,1 1,9   17,3
06.12.1967     997,1 -0,5           -1,1 1,6   13,3
07.12.1967     998,3 -2,6           -3,1 -0,8   1,8
08.12.1967     1001,4 -4,5           -5,3 -3,0   2,8
09.12.1967     1005,7 -7,4           -8,1 -4,3   0,0
10.12.1967     1011,4 -12,6           -15,6 -6,3   0,0
11.12.1967     1020,3 -9,5           -16,5 -7,5   0,0
12.12.1967     1018,9 -10,0           -11,1 -8,9   0,3
13.12.1967     1018,2 -5,4           -10,5 -4,1   1,2
14.12.1967     1024,3 -1,5           -4,1 -0,2   0,0
15.12.1967     1021,3 -0,3           -2,6 0,1   0,3
16.12.1967     1012,3 0,5           -0,1 1,1   3,2
17.12.1967     1019,8 -1,8           -2,7 0,2   0,0
18.12.1967     1017,3 -3,0           -3,8 -1,8   2,1
19.12.1967     1008,2 -3,6           -4,6 -2,8   0,9
20.12.1967     1021,1 -6,6           -9,2 -3,5   1,2
21.12.1967     1022,5 -5,2           -12,2 -4,4   4,0
22.12.1967     1016,9 0,5           -4,7 1,6   3,0
23.12.1967     1004,6 6,6           1,6 7,8   24,1
24.12.1967     998,6 4,6           3,7 7,8   1,4
25.12.1967     994,9 2,2           1,3 3,8   1,7
26.12.1967     1001,5 1,8           0,5 3,3   2,1
27.12.1967     1014,1 -4,2           -6,9 1,6   0,0
28.12.1967     1003,9 -0,6           -5,6 0,1   1,8
29.12.1967     1001,7 -1,1           -1,4 0,3   1,1
30.12.1967     1006,5 -5,4           -7,8 -1,3   1,7
31.12.1967     1003,0 -2,5           -7,8 -2,0   2,0